Terminal Aerodrome Forecast
Issued by NWS

Home | Current Version | Previous Version | Text Only | Print | Product List | Glossary On
Versions: 1 2 3 4 5 6 7 8 9 10 11 12 13 14
768
FTUS41 KPBZ 010520
TAFFKL
TAF
KFKL 010520Z 0106/0206 11009KT P6SM -SHRA BKN008
     FM010900 11008KT P6SM VCSH BKN008
     FM011400 12007KT P6SM VCSH OVC015
     FM011700 14006KT P6SM VCSH BKN025
     FM020500 14004KT P6SM VCSH BKN015
      AMD LTD TO CLD VIS AND WIND=

USA.gov is the U.S. government's official web portal to all federal, state and local government web resources and services.